Pagrindinis puslapis
METAR-TAF:

METAR-TAF

Oro uostai :

Gothenburg-Landvetter, Švedija

platuma: 57-40N, ilguma: 012-18E, Aukštis: 169 m

Dabartinis oras

Ataskaita buvo paskelbta 23 minutes, ne 05:20 UTC
Vėjas 3 kt iš Pietryčių
Temperatūra 0°C
Drėgmė 86%
Slėgis 1024 hPa
Matomumas 10 km arba daugiau
nėra debesų žemiau 1500 m ir nėra kamuolinių lietaus debesų

METAR: ESGG 100520Z 13003KT CAVOK M00/M02 Q1024

Laikas: 07:43 (05:43 UTC)

Prognozė

Ataskaita buvo paskelbta 13 minutes, ne 05:30 UTC
Prognozė galioja nuo 10 metu 06 UTC su 11 metu 06 UTC
Vėjas 4 kt iš Rytų/Šiaurės Rytų
Matomumas 10 km arba daugiau
nėra debesų žemiau 1500 m ir nėra kamuolinių lietaus debesų

TAF: ESGG 100530Z 1006/1106 07004KT CAVOK

Orai ataskaitas ir orų prognozės (METAR, TAF).

turimą stotys yra geltonos ir raudonos taškus žemėlapyje.

Perkelti pele per norėdami pamatyti stoties vardą.

Tada spustelėkite, norėdami matyti oro stebėjimo ir prognozės.

Norėdami pakeisti žemėlapį: spustelėkite ant žalios mygtukų su juodo kryžiaus žemyn,; žalią mygtuką su brūkšneliu, jei norite nutolinti; arba žalių rodyklių gretimoms žemėlapius.


METAR-TAF: